Time;durP1;ratioP1;P1;durP2;ratioP2;P2;SDS_P1;SDS_P2;PMS_P1;PMS_P2;Temp;Humidity;BMP_temperature;BMP_pressure;BME280_temperature;BME280_humidity;BME280_pressure;Samples;Min_cycle;Max_cycle;Signal;HPM_P1;HPM_P2
2024/03/03 00:02:45;;;;;;;35.60;14.90;;;;;;;-6.66;100.00;140661.19;106746;1276;25455;-70
2024/03/03 00:05:31;;;;;;;31.50;14.30;;;;;;;-6.69;100.00;140655.28;106594;1279;25384;-75
2024/03/03 00:08:17;;;;;;;31.60;13.60;;;;;;;-6.74;100.00;140642.42;106579;1272;25538;-68
2024/03/03 00:11:03;;;;;;;29.50;12.80;;;;;;;-6.81;100.00;140628.09;106653;1280;25372;-71
2024/03/03 00:13:49;;;;;;;25.60;12.20;;;;;;;-6.83;100.00;140620.67;106607;1271;25368;-69
2024/03/03 00:16:34;;;;;;;34.20;12.40;;;;;;;-6.85;100.00;140615.75;106586;1270;25461;-68
2024/03/03 00:19:20;;;;;;;29.30;12.20;;;;;;;-6.86;100.00;140614.28;106620;1267;22561;-71
2024/03/03 00:22:06;;;;;;;31.30;13.50;;;;;;;-6.88;100.00;140610.08;106620;1279;25394;-68
2024/03/03 00:24:51;;;;;;;33.50;13.20;;;;;;;-6.89;100.00;140606.13;106579;1275;25379;-69
2024/03/03 00:27:37;;;;;;;30.40;13.60;;;;;;;-6.91;100.00;140601.66;106638;1270;25385;-70
2024/03/03 00:30:25;;;;;;;25.30;13.10;;;;;;;-6.94;100.00;140594.75;106638;1279;25425;-69
2024/03/03 00:33:11;;;;;;;28.10;14.50;;;;;;;-6.93;100.00;140596.72;106669;1278;25513;-72
2024/03/03 00:35:57;;;;;;;26.70;12.40;;;;;;;-6.89;100.00;140606.84;106656;1270;25542;-73
2024/03/03 00:38:43;;;;;;;28.60;13.70;;;;;;;-6.84;100.00;140619.95;106676;1277;25384;-71
2024/03/03 00:41:28;;;;;;;35.90;14.10;;;;;;;-6.81;100.00;140627.84;106591;1271;25431;-69
2024/03/03 00:44:14;;;;;;;30.20;15.10;;;;;;;-6.78;100.00;140634.25;106644;1278;25358;-72
2024/03/03 00:47:00;;;;;;;29.30;14.80;;;;;;;-6.78;100.00;140635.00;106206;1282;25364;-75
2024/03/03 00:49:45;;;;;;;30.50;15.60;;;;;;;-6.76;100.00;140637.97;106236;1273;25492;-74
2024/03/03 00:52:33;;;;;;;31.90;15.50;;;;;;;-6.73;100.00;140643.66;106219;1273;25397;-70
2024/03/03 00:55:25;;;;;;;35.30;14.90;;;;;;;-6.71;100.00;140648.59;106252;1283;25474;-73
2024/03/03 00:58:11;;;;;;;38.50;15.00;;;;;;;-6.68;100.00;140656.50;106343;1277;25463;-75
2024/03/03 01:00:57;;;;;;;37.00;17.30;;;;;;;-6.67;100.00;140658.95;107305;1282;23201;-62
2024/03/03 01:03:42;;;;;;;35.80;15.30;;;;;;;-6.72;100.00;140647.86;107708;1279;25938;-62
2024/03/03 01:06:29;;;;;;;30.20;15.50;;;;;;;-6.79;100.00;140631.30;107559;1280;25409;-65
2024/03/03 01:09:16;;;;;;;37.60;15.70;;;;;;;-6.85;100.00;140616.00;107391;1274;26067;-70
2024/03/03 01:12:02;;;;;;;34.80;15.10;;;;;;;-6.90;100.00;140604.38;107212;1272;25424;-72
2024/03/03 01:14:48;;;;;;;37.10;14.90;;;;;;;-6.91;100.00;140601.92;107744;1276;23920;-69
2024/03/03 01:17:34;;;;;;;30.80;14.90;;;;;;;-6.90;100.00;140603.64;107513;1270;25408;-71
2024/03/03 01:20:20;;;;;;;44.40;15.20;;;;;;;-6.90;100.00;140604.63;107655;1279;23854;-74
2024/03/03 01:23:06;;;;;;;34.10;16.00;;;;;;;-6.91;100.00;140602.16;106896;1274;25423;-78
2024/03/03 01:25:51;;;;;;;45.30;15.60;;;;;;;-6.95;100.00;140593.03;106678;1275;25493;-67
2024/03/03 01:28:37;;;;;;;36.60;15.90;;;;;;;-6.99;100.00;140582.63;106651;1269;25334;-73
2024/03/03 01:31:23;;;;;;;34.20;14.70;;;;;;;-7.02;100.00;140576.22;106659;1271;25462;-71
2024/03/03 01:34:09;;;;;;;34.40;14.50;;;;;;;-7.02;100.00;140575.22;106646;1264;25426;-70
2024/03/03 01:36:55;;;;;;;37.10;15.50;;;;;;;-7.03;100.00;140573.73;106645;1273;25511;-69
2024/03/03 01:39:42;;;;;;;35.80;14.90;;;;;;;-7.01;100.00;140578.44;106624;1270;25393;-69
2024/03/03 01:42:28;;;;;;;31.80;15.80;;;;;;;-7.01;100.00;140579.17;106608;1275;25337;-75
2024/03/03 01:45:24;;;;;;;32.10;14.60;;;;;;;-7.01;100.00;140579.19;106540;1278;25384;-73
2024/03/03 01:48:10;;;;;;;34.60;13.90;;;;;;;-7.02;100.00;140575.00;106629;1274;25335;-70
2024/03/03 01:50:57;;;;;;;36.00;14.70;;;;;;;-7.04;100.00;140569.56;106649;1279;25389;-74
2024/03/03 01:53:49;;;;;;;39.30;15.70;;;;;;;-7.03;100.00;140572.78;106643;1271;25393;-76
2024/03/03 01:56:37;;;;;;;;;;;;;;;-6.99;100.00;140582.39;106641;1275;25322;-67
2024/03/03 01:59:23;;;;;;;32.10;14.50;;;;;;;-6.95;100.00;140592.53;106661;1263;25386;-71
2024/03/03 02:02:09;;;;;;;34.90;14.60;;;;;;;-6.90;100.00;140604.38;106622;1274;25383;-71
2024/03/03 02:04:56;;;;;;;30.40;14.50;;;;;;;-6.87;100.00;140611.80;106606;1274;25465;-73
2024/03/03 02:07:43;;;;;;;36.50;14.50;;;;;;;-6.84;100.00;140618.45;106759;1270;25449;-75
2024/03/03 02:10:30;;;;;;;29.70;13.70;;;;;;;-6.86;100.00;140613.78;106739;1270;25456;-76
2024/03/03 02:13:16;;;;;;;31.50;14.20;;;;;;;-6.89;100.00;140607.59;106886;1277;25916;-67
2024/03/03 02:16:02;;;;;;;33.70;14.50;;;;;;;-6.92;100.00;140600.19;106892;1270;25390;-74
2024/03/03 02:18:47;;;;;;;35.30;15.00;;;;;;;-6.89;100.00;140607.11;106782;1270;25338;-68
2024/03/03 02:21:33;;;;;;;34.20;15.70;;;;;;;-6.81;100.00;140625.61;106797;1271;25338;-70
2024/03/03 02:24:19;;;;;;;31.90;15.50;;;;;;;-6.80;100.00;140630.31;106913;1271;25926;-71
2024/03/03 02:27:05;;;;;;;30.60;14.20;;;;;;;-6.79;100.00;140631.81;106961;1270;25506;-71
2024/03/03 02:29:50;;;;;;;40.00;15.00;;;;;;;-6.79;100.00;140630.80;106714;1268;25358;-79
2024/03/03 02:32:36;;;;;;;34.20;17.50;;;;;;;-6.82;100.00;140625.14;106609;1270;25327;-68
2024/03/03 02:35:21;;;;;;;35.10;15.30;;;;;;;-6.80;100.00;140629.83;106596;1269;25460;-74
2024/03/03 02:38:07;;;;;;;34.90;17.20;;;;;;;-6.78;100.00;140633.53;106631;1270;25404;-72
2024/03/03 02:40:52;;;;;;;38.70;16.60;;;;;;;-6.77;100.00;140635.75;106637;1271;23690;-68
2024/03/03 02:43:38;;;;;;;42.80;16.70;;;;;;;-6.80;100.00;140630.56;106653;1269;25408;-70
2024/03/03 02:46:24;;;;;;;29.30;16.90;;;;;;;-6.83;100.00;140621.66;106627;1271;25386;-73
2024/03/03 02:49:10;;;;;;;36.30;16.40;;;;;;;-6.87;100.00;140611.53;106633;1279;25485;-71
2024/03/03 02:51:55;;;;;;;36.30;16.30;;;;;;;-6.89;100.00;140607.34;106622;1270;24282;-78
2024/03/03 02:54:41;;;;;;;32.70;15.30;;;;;;;-6.91;100.00;140603.16;106594;1268;25337;-77
2024/03/03 02:57:27;;;;;;;38.20;16.40;;;;;;;-6.90;100.00;140605.36;106633;1268;25376;-71
2024/03/03 03:00:13;;;;;;;33.70;15.50;;;;;;;-6.88;100.00;140610.30;106638;1264;25394;-73
2024/03/03 03:02:59;;;;;;;39.60;17.00;;;;;;;-6.87;100.00;140612.53;106598;1270;25341;-69
2024/03/03 03:05:44;;;;;;;37.10;16.00;;;;;;;-6.87;100.00;140612.53;106724;1264;25361;-73
2024/03/03 03:08:30;;;;;;;32.80;15.80;;;;;;;-6.90;100.00;140604.39;106648;1274;25348;-68
2024/03/03 03:11:16;;;;;;;32.00;14.80;;;;;;;-6.91;100.00;140601.42;106605;1267;25486;-70
2024/03/03 03:14:02;;;;;;;33.40;14.50;;;;;;;-6.91;100.00;140602.66;106614;1274;25352;-66
2024/03/03 03:16:47;;;;;;;33.20;15.50;;;;;;;-6.92;100.00;140599.45;106672;1269;25373;-64
2024/03/03 03:19:33;;;;;;;31.40;15.30;;;;;;;-6.92;100.00;140599.95;106639;1266;25346;-73
2024/03/03 03:22:18;;;;;;;39.60;16.00;;;;;;;-6.91;100.00;140602.41;106668;1271;25425;-75
2024/03/03 03:25:05;;;;;;;32.00;16.00;;;;;;;-6.90;100.00;140603.89;106673;1271;25379;-70
2024/03/03 03:27:51;;;;;;;30.70;14.20;;;;;;;-6.89;100.00;140606.38;106615;1267;25350;-73
2024/03/03 03:30:37;;;;;;;24.90;14.10;;;;;;;-6.93;100.00;140597.72;106638;1268;25466;-73
2024/03/03 03:33:22;;;;;;;27.60;13.60;;;;;;;-6.96;100.00;140588.84;106660;1268;25498;-67
2024/03/03 03:36:09;;;;;;;32.40;13.60;;;;;;;-6.91;100.00;140601.67;106651;1278;25414;-73
2024/03/03 03:38:55;;;;;;;27.80;13.10;;;;;;;-6.83;100.00;140620.92;106664;1279;25552;-71
2024/03/03 03:41:45;;;;;;;29.80;13.60;;;;;;;-6.79;100.00;140631.08;106657;1269;25364;-68
2024/03/03 03:44:31;;;;;;;28.30;13.50;;;;;;;-6.78;100.00;140635.00;106643;1269;25400;-72
2024/03/03 03:47:16;;;;;;;28.70;14.20;;;;;;;-6.79;100.00;140631.81;106655;1267;25434;-69
2024/03/03 03:50:02;;;;;;;35.80;13.50;;;;;;;-6.80;100.00;140629.31;106616;1267;25481;-68
2024/03/03 03:52:47;;;;;;;36.00;14.90;;;;;;;-6.82;100.00;140623.66;106630;1279;25363;-70
2024/03/03 03:55:33;;;;;;;23.40;12.40;;;;;;;-6.85;100.00;140616.97;106662;1264;25337;-73
2024/03/03 03:58:19;;;;;;;33.20;14.30;;;;;;;-6.85;100.00;140617.22;106650;1270;25416;-65
2024/03/03 04:01:04;;;;;;;28.40;13.40;;;;;;;-6.83;100.00;140621.17;106638;1270;25404;-73
2024/03/03 04:03:50;;;;;;;28.10;14.10;;;;;;;-6.82;100.00;140623.16;106644;1270;25367;-69
2024/03/03 04:06:36;;;;;;;33.60;15.00;;;;;;;-6.83;100.00;140621.44;106653;1270;25379;-73
2024/03/03 04:09:21;;;;;;;31.70;13.90;;;;;;;-6.85;100.00;140616.97;106638;1270;25608;-73
2024/03/03 04:12:07;;;;;;;30.50;13.70;;;;;;;-6.86;100.00;140614.77;106755;1277;25425;-69
2024/03/03 04:14:52;;;;;;;26.50;13.20;;;;;;;-6.87;100.00;140612.03;106630;1263;25390;-71
2024/03/03 04:17:38;;;;;;;25.40;12.60;;;;;;;-6.86;100.00;140614.52;106623;1268;25348;-70
2024/03/03 04:20:23;;;;;;;31.20;13.10;;;;;;;-6.85;100.00;140617.72;106633;1269;25386;-74
2024/03/03 04:23:09;;;;;;;30.90;14.40;;;;;;;-6.86;100.00;140613.28;106625;1265;25411;-68
2024/03/03 04:25:54;;;;;;;29.70;13.80;;;;;;;-6.88;100.00;140609.34;106640;1272;25382;-75
2024/03/03 04:28:40;;;;;;;32.60;14.20;;;;;;;-6.92;100.00;140599.95;106651;1266;25463;-70
2024/03/03 04:31:26;;;;;;;31.50;13.60;;;;;;;-6.96;100.00;140589.09;106635;1268;25494;-72
2024/03/03 04:34:11;;;;;;;26.20;13.10;;;;;;;-6.97;100.00;140587.11;106635;1270;25348;-76
2024/03/03 04:36:57;;;;;;;29.30;13.70;;;;;;;-6.97;100.00;140587.61;106671;1269;25348;-72
2024/03/03 04:39:43;;;;;;;26.50;13.90;;;;;;;-6.95;100.00;140591.05;106645;1269;25443;-75
2024/03/03 04:42:29;;;;;;;30.80;14.40;;;;;;;-6.95;100.00;140591.55;106649;1268;25509;-74
2024/03/03 04:45:15;;;;;;;27.40;14.40;;;;;;;-6.99;100.00;140583.13;106639;1265;25489;-74
2024/03/03 04:48:01;;;;;;;28.50;14.70;;;;;;;-7.02;100.00;140574.98;106699;1268;25435;-75
2024/03/03 04:50:47;;;;;;;33.00;15.90;;;;;;;-7.04;100.00;140570.56;106358;1269;25376;-72
2024/03/03 04:53:33;;;;;;;29.80;15.00;;;;;;;-7.04;100.00;140571.53;106415;1270;25363;-76
2024/03/03 04:56:18;;;;;;;27.30;14.90;;;;;;;-7.03;100.00;140573.25;106593;1278;25429;-73
2024/03/03 04:59:04;;;;;;;35.10;16.10;;;;;;;-7.03;100.00;140574.23;106617;1269;25386;-68
2024/03/03 05:01:49;;;;;;;30.60;15.10;;;;;;;-7.02;100.00;140574.72;106589;1270;25341;-65
2024/03/03 05:04:35;;;;;;;27.70;15.50;;;;;;;-7.02;100.00;140574.97;106621;1271;25354;-74
2024/03/03 05:07:21;;;;;;;32.60;16.40;;;;;;;-7.01;100.00;140577.95;106606;1270;25414;-72
2024/03/03 05:10:07;;;;;;;31.60;15.00;;;;;;;-6.97;100.00;140587.09;106613;1270;25357;-76
2024/03/03 05:12:53;;;;;;;32.50;14.00;;;;;;;-6.93;100.00;140597.72;106610;1270;25377;-72
2024/03/03 05:15:40;;;;;;;27.40;14.60;;;;;;;-6.87;100.00;140611.53;106652;1270;25337;-78
2024/03/03 05:18:26;;;;;;;35.00;14.20;;;;;;;-6.79;100.00;140631.55;106625;1280;25403;-77
2024/03/03 05:21:12;;;;;;;33.80;14.90;;;;;;;-6.73;100.00;140644.66;106680;1271;25495;-77
2024/03/03 05:23:58;;;;;;;32.60;14.10;;;;;;;-6.73;100.00;140645.63;106646;1271;25498;-77
2024/03/03 05:26:43;;;;;;;25.90;12.00;;;;;;;-6.75;100.00;140640.20;106610;1265;25440;-73
2024/03/03 05:29:29;;;;;;;26.00;12.80;;;;;;;-6.71;100.00;140648.59;106601;1271;25424;-74
2024/03/03 05:32:15;;;;;;;21.30;11.60;;;;;;;-6.66;100.00;140662.67;106605;1270;25349;-66
2024/03/03 05:35:00;;;;;;;23.10;11.70;;;;;;;-6.60;100.00;140677.52;106591;1270;25422;-76
2024/03/03 05:37:46;;;;;;;25.40;13.00;;;;;;;-6.54;100.00;140691.34;106598;1267;25376;-76
2024/03/03 05:40:32;;;;;;;20.80;11.60;;;;;;;-6.55;100.00;140689.36;106714;1271;25400;-75
2024/03/03 05:43:17;;;;;;;21.60;12.00;;;;;;;-6.50;100.00;140699.97;106825;1258;23938;-72
2024/03/03 05:46:03;;;;;;;20.00;10.70;;;;;;;-6.48;100.00;140705.66;106768;1262;25397;-68
2024/03/03 05:48:49;;;;;;;22.90;11.50;;;;;;;-6.49;100.00;140702.95;106651;1262;25349;-72
2024/03/03 05:51:35;;;;;;;21.50;10.00;;;;;;;-6.46;100.00;140711.59;106571;1270;25363;-68
2024/03/03 05:54:21;;;;;;;23.80;10.60;;;;;;;-6.40;100.00;140724.22;106789;1269;25397;-74
2024/03/03 05:57:06;;;;;;;16.00;9.60;;;;;;;-6.38;100.00;140730.13;107080;1269;25880;-68
2024/03/03 05:59:52;;;;;;;16.80;10.00;;;;;;;-6.22;100.00;140768.91;107072;1261;25420;-68
2024/03/03 06:02:38;;;;;;;22.50;10.30;;;;;;;-6.15;100.00;140785.23;107081;1257;25443;-67
2024/03/03 06:05:24;;;;;;;20.80;8.80;;;;;;;-6.06;100.00;140806.02;108076;1260;25425;-64
2024/03/03 06:08:09;;;;;;;17.40;9.50;;;;;;;-6.01;100.00;140819.59;108214;1261;23945;-62
2024/03/03 06:10:55;;;;;;;17.30;8.50;;;;;;;-5.98;100.00;140826.28;106717;1262;25406;-68
2024/03/03 06:13:41;;;;;;;18.10;9.40;;;;;;;-6.03;100.00;140813.42;106728;1268;25382;-72
2024/03/03 06:16:26;;;;;;;14.40;8.70;;;;;;;-6.14;100.00;140787.45;106779;1260;22571;-76
2024/03/03 06:19:12;;;;;;;24.80;10.60;;;;;;;-6.13;100.00;140790.91;106731;1262;25399;-75
2024/03/03 06:21:58;;;;;;;22.90;10.10;;;;;;;-6.09;100.00;140799.83;106695;1270;25338;-74
2024/03/03 06:24:43;;;;;;;16.10;9.00;;;;;;;-6.00;100.00;140822.81;106694;1271;24029;-70
2024/03/03 06:27:30;;;;;;;22.10;9.10;;;;;;;-5.94;100.00;140836.66;106828;1265;25350;-76
2024/03/03 06:30:16;;;;;;;21.70;10.10;;;;;;;-5.92;100.00;140842.06;106760;1268;25411;-72
2024/03/03 06:33:02;;;;;;;16.20;8.00;;;;;;;-5.78;100.00;140874.20;106693;1265;25552;-68
2024/03/03 06:35:49;;;;;;;15.90;7.40;;;;;;;-5.59;100.00;140920.19;106892;1268;25429;-75
2024/03/03 06:38:35;;;;;;;16.20;7.80;;;;;;;-5.65;99.95;140905.59;106663;1270;25486;-71
2024/03/03 06:41:21;;;;;;;16.90;8.40;;;;;;;-5.51;99.34;140940.47;106726;1270;23347;-71
2024/03/03 06:44:07;;;;;;;15.70;8.40;;;;;;;-5.32;98.35;140985.23;106756;1267;22651;-66
2024/03/03 06:46:53;;;;;;;15.40;8.50;;;;;;;-5.24;94.92;141006.28;106703;1270;25334;-72
2024/03/03 06:49:39;;;;;;;12.50;7.30;;;;;;;-5.14;95.35;141030.03;106747;1269;25363;-70
2024/03/03 06:52:24;;;;;;;15.50;7.30;;;;;;;-5.15;91.73;141028.28;106669;1279;25363;-69
2024/03/03 06:55:10;;;;;;;13.50;7.00;;;;;;;-5.32;92.26;140984.97;106771;1262;25412;-76
2024/03/03 06:57:56;;;;;;;15.60;7.60;;;;;;;-4.77;91.11;141118.38;106703;1270;25597;-69
2024/03/03 07:00:42;;;;;;;14.00;7.50;;;;;;;-2.59;83.29;141645.34;106670;1268;25345;-70
2024/03/03 07:06:33;;;;;;;15.80;6.40;;;;;;;1.21;60.11;142569.50;106805;1268;25499;-71
2024/03/03 07:09:22;;;;;;;13.50;6.60;;;;;;;1.47;53.78;142631.70;106706;1272;25362;-67
2024/03/03 07:12:09;;;;;;;14.20;5.90;;;;;;;1.35;53.27;142603.83;106793;1270;25358;-76
2024/03/03 07:14:55;;;;;;;13.40;6.50;;;;;;;1.08;53.32;142537.88;106668;1265;22680;-73
2024/03/03 07:17:42;;;;;;;10.40;5.90;;;;;;;1.77;51.74;142706.16;106645;1269;25371;-72
2024/03/03 07:20:28;;;;;;;11.00;5.60;;;;;;;2.15;49.72;142798.53;106823;1270;22941;-71
2024/03/03 07:23:14;;;;;;;13.00;5.70;;;;;;;2.16;48.58;142799.28;106736;1267;25386;-72
2024/03/03 07:26:00;;;;;;;11.30;5.30;;;;;;;2.69;48.68;142928.08;106721;1276;25396;-71
2024/03/03 07:28:45;;;;;;;12.90;6.10;;;;;;;3.45;45.49;143114.28;106627;1271;25491;-71
2024/03/03 07:31:31;;;;;;;9.60;5.90;;;;;;;2.74;45.93;142942.53;106725;1268;25386;-71
2024/03/03 07:34:17;;;;;;;10.30;5.60;;;;;;;2.78;46.62;142950.00;106873;1260;25348;-73
2024/03/03 07:37:03;;;;;;;11.50;5.90;;;;;;;2.50;45.61;142882.25;106705;1270;25396;-66
2024/03/03 07:39:49;;;;;;;11.40;6.00;;;;;;;1.78;47.30;142707.66;106696;1270;25460;-69
2024/03/03 07:42:35;;;;;;;8.80;5.20;;;;;;;1.83;47.67;142720.84;106811;1258;25386;-77
2024/03/03 07:45:21;;;;;;;11.40;6.10;;;;;;;1.22;48.00;142570.97;106785;1268;25469;-72
2024/03/03 07:48:07;;;;;;;16.30;5.50;;;;;;;0.43;50.07;142378.41;106643;1268;25386;-75
2024/03/03 07:50:54;;;;;;;11.30;5.80;;;;;;;-0.04;51.65;142265.80;106692;1265;25338;-75
2024/03/03 07:53:40;;;;;;;14.10;6.10;;;;;;;-0.81;53.98;142077.45;106587;1268;25355;-71
2024/03/03 07:56:26;;;;;;;11.60;5.90;;;;;;;-0.97;55.45;142038.67;106582;1276;25472;-75
2024/03/03 07:59:12;;;;;;;17.20;6.20;;;;;;;-0.89;54.60;142058.80;106618;1271;25421;-72
2024/03/03 08:01:58;;;;;;;9.00;5.80;;;;;;;-1.27;56.08;141965.91;106591;1270;25409;-74
2024/03/03 08:04:44;;;;;;;9.70;5.30;;;;;;;-1.45;57.55;141921.23;106562;1268;25399;-70
2024/03/03 08:07:30;;;;;;;9.20;4.80;;;;;;;-0.83;56.62;142073.22;106603;1262;25458;-71
2024/03/03 08:10:16;;;;;;;14.50;6.40;;;;;;;-0.81;55.84;142078.66;106647;1270;25348;-73
2024/03/03 08:13:02;;;;;;;12.40;6.20;;;;;;;-1.58;58.04;141891.45;106598;1271;25348;-68
2024/03/03 08:15:48;;;;;;;10.20;6.10;;;;;;;-1.93;59.85;141807.31;106640;1268;25438;-74
2024/03/03 08:18:34;;;;;;;13.20;6.30;;;;;;;-2.37;61.50;141700.13;106702;1270;25364;-72
2024/03/03 08:21:20;;;;;;;11.60;6.20;;;;;;;-2.65;63.11;141632.41;106674;1265;25361;-73
2024/03/03 08:24:05;;;;;;;15.30;5.80;;;;;;;-3.02;64.65;141543.16;106696;1270;25580;-70
2024/03/03 08:26:51;;;;;;;13.30;6.60;;;;;;;-3.31;66.28;141472.02;106694;1270;25426;-66
2024/03/03 08:29:37;;;;;;;13.30;6.70;;;;;;;-3.43;67.01;141444.28;106623;1270;25347;-70
2024/03/03 08:32:26;;;;;;;15.80;6.90;;;;;;;-3.43;67.04;141443.28;106769;1270;25433;-71
2024/03/03 08:35:11;;;;;;;15.00;6.80;;;;;;;-3.55;67.39;141414.02;106522;1270;25548;-76
2024/03/03 08:38:07;;;;;;;13.60;6.50;;;;;;;-3.79;68.64;141355.80;106692;1270;26513;-70
2024/03/03 08:40:58;;;;;;;13.60;6.70;;;;;;;-3.99;69.82;141309.00;106682;1257;25351;-74
2024/03/03 08:43:43;;;;;;;13.70;6.30;;;;;;;-4.19;70.45;141260.22;106743;1261;23763;-71
2024/03/03 08:46:29;;;;;;;13.20;6.10;;;;;;;-4.37;71.29;141215.89;106794;1279;25425;-71
2024/03/03 08:49:15;;;;;;;13.00;6.00;;;;;;;-4.47;72.14;141190.88;106779;1268;25348;-71
2024/03/03 08:52:05;;;;;;;20.50;7.30;;;;;;;-4.49;72.61;141187.91;106778;1271;25370;-71
2024/03/03 08:54:52;;;;;;;13.20;6.50;;;;;;;-4.39;72.84;141210.67;106709;1270;25376;-75
2024/03/03 08:57:38;;;;;;;17.90;8.20;;;;;;;-4.24;72.75;141248.09;106689;1271;25434;-66
2024/03/03 09:00:26;;;;;;;18.20;6.90;;;;;;;-4.06;71.82;141290.66;106633;1264;25351;-75
2024/03/03 09:03:12;;;;;;;12.00;7.10;;;;;;;-3.89;71.33;141331.53;106668;1262;25441;-76
2024/03/03 09:05:57;;;;;;;20.10;7.90;;;;;;;-3.77;70.48;141360.52;106717;1260;25349;-73
2024/03/03 09:08:44;;;;;;;12.40;6.40;;;;;;;-3.74;70.23;141368.67;106760;1266;25450;-69
2024/03/03 09:11:32;;;;;;;12.20;6.40;;;;;;;-3.57;69.60;141408.08;106680;1271;25370;-76
2024/03/03 09:14:18;;;;;;;16.40;6.80;;;;;;;-3.52;69.14;141422.70;106750;1262;25360;-73
2024/03/03 09:17:04;;;;;;;12.20;6.30;;;;;;;-3.59;69.21;141403.86;106705;1270;23137;-67
2024/03/03 09:19:50;;;;;;;17.30;7.70;;;;;;;-3.63;69.37;141395.70;106729;1270;25410;-73
2024/03/03 09:22:39;;;;;;;19.30;6.50;;;;;;;-3.80;69.98;141354.81;106664;1270;25350;-70
2024/03/03 09:25:25;;;;;;;13.10;6.20;;;;;;;-3.98;71.08;141308.75;106713;1262;25415;-75
2024/03/03 09:28:11;;;;;;;15.50;6.90;;;;;;;-4.07;71.76;141287.20;106687;1270;22530;-73
2024/03/03 09:30:57;;;;;;;16.50;6.10;;;;;;;-3.94;72.17;141321.13;106748;1270;23223;-75
2024/03/03 09:33:46;;;;;;;11.70;5.70;;;;;;;-3.65;71.45;141388.50;106747;1267;25337;-69
2024/03/03 09:36:34;;;;;;;17.00;6.10;;;;;;;-3.30;70.14;141476.00;106726;1269;25425;-73
2024/03/03 09:39:20;;;;;;;11.30;5.30;;;;;;;-2.95;68.52;141561.00;106776;1265;140575;-73
2024/03/03 09:42:06;;;;;;;17.00;6.30;;;;;;;-2.79;66.59;141597.95;106773;1264;25338;-77
2024/03/03 09:44:58;;;;;;;13.10;7.10;;;;;;;-2.91;66.77;141569.67;106686;1271;25488;-78
2024/03/03 09:47:47;;;;;;;20.40;7.50;;;;;;;-2.97;66.83;141554.31;106791;1262;23200;-66
2024/03/03 09:50:34;;;;;;;18.10;7.50;;;;;;;-3.02;67.03;141542.91;106797;1270;25491;-71
2024/03/03 09:53:21;;;;;;;13.40;7.30;;;;;;;-3.10;67.22;141523.08;106651;1272;25478;-75
2024/03/03 09:56:08;;;;;;;11.60;6.40;;;;;;;-3.22;68.17;141494.08;106839;1261;25429;-67
2024/03/03 09:58:54;;;;;;;17.10;6.90;;;;;;;-3.28;68.31;141480.70;106727;1260;25495;-71
2024/03/03 10:01:50;;;;;;;13.20;6.60;;;;;;;-3.35;68.77;141462.59;106689;1256;25456;-70
2024/03/03 10:04:38;;;;;;;12.60;5.30;;;;;;;-3.19;68.84;141501.50;106694;1271;25376;-74
2024/03/03 10:07:25;;;;;;;15.10;6.70;;;;;;;-3.07;67.51;141531.00;106696;1264;25348;-73
2024/03/03 10:10:18;;;;;;;11.20;5.30;;;;;;;-2.94;67.63;141562.48;106715;1257;24247;-71
2024/03/03 10:13:05;;;;;;;13.90;5.90;;;;;;;-2.69;66.34;141622.75;106699;1261;25425;-77
2024/03/03 10:15:52;;;;;;;15.20;6.30;;;;;;;-2.59;65.72;141646.06;106454;1260;25532;-70
2024/03/03 10:18:38;;;;;;;15.20;6.00;;;;;;;-2.43;65.38;141685.23;106715;1276;25532;-72
2024/03/03 10:21:24;;;;;;;12.30;6.70;;;;;;;-2.19;64.35;141743.53;106873;1262;25428;-78
2024/03/03 10:24:28;;;;;;;14.60;5.30;;;;;;;-2.12;63.92;141761.16;106825;1271;25363;-80
2024/03/03 10:27:18;;;;;;;14.30;7.00;;;;;;;-2.00;62.76;141788.94;106783;1277;25349;-77
2024/03/03 10:30:07;;;;;;;9.50;5.30;;;;;;;-2.11;62.66;141763.88;106741;1262;25346;-72
2024/03/03 10:33:02;;;;;;;12.30;5.70;;;;;;;-2.32;62.66;141710.78;106809;1270;25489;-71
2024/03/03 10:36:04;;;;;;;13.20;5.70;;;;;;;-2.43;62.93;141686.22;107327;1271;23251;-69
2024/03/03 10:38:53;;;;;;;9.70;5.50;;;;;;;-2.36;62.63;141702.59;106715;1270;25373;-72
2024/03/03 10:41:39;;;;;;;9.20;5.30;;;;;;;-2.30;62.55;141716.00;106771;1280;25498;-76
2024/03/03 10:44:25;;;;;;;14.60;5.70;;;;;;;-2.25;62.32;141728.66;106871;1279;25428;-74
2024/03/03 10:47:14;;;;;;;10.70;5.50;;;;;;;-2.32;62.69;141711.78;106790;1262;24484;-78
2024/03/03 10:50:01;;;;;;;14.60;5.20;;;;;;;-2.63;63.66;141635.91;106836;1279;25392;-70
2024/03/03 10:52:52;;;;;;;14.60;5.90;;;;;;;-2.91;65.17;141570.91;107819;1277;25885;-65
2024/03/03 10:55:40;;;;;;;13.90;6.00;;;;;;;-2.94;65.07;141561.97;107543;1268;24208;-71
2024/03/03 10:58:30;;;;;;;15.70;5.70;;;;;;;-2.69;64.67;141622.72;107014;1277;22733;-69
2024/03/03 11:01:18;;;;;;;19.00;6.30;;;;;;;-2.47;63.53;141674.83;107888;1261;25428;-66
2024/03/03 11:04:05;;;;;;;12.30;6.50;;;;;;;-2.66;63.79;141629.94;106839;1263;25663;-72
2024/03/03 11:06:52;;;;;;;15.70;5.80;;;;;;;-2.86;64.70;141581.83;106760;1261;25466;-71
2024/03/03 11:09:39;;;;;;;13.80;6.60;;;;;;;-3.03;65.12;141539.44;106881;1262;23939;-76
2024/03/03 11:12:30;;;;;;;12.00;6.00;;;;;;;-3.25;66.19;141487.39;106844;1262;25393;-74
2024/03/03 11:15:20;;;;;;;12.20;6.00;;;;;;;-3.45;67.19;141437.83;106773;1259;25348;-70
2024/03/03 11:18:17;;;;;;;20.50;6.90;;;;;;;-3.48;68.10;141431.13;106925;1259;25387;-66
2024/03/03 11:21:08;;;;;;;14.20;6.20;;;;;;;-3.11;67.61;141521.58;106668;1262;25345;-67
2024/03/03 11:24:06;;;;;;;13.30;6.50;;;;;;;-2.88;66.03;141576.59;106802;1264;23397;-71
2024/03/03 11:27:02;;;;;;;19.50;6.90;;;;;;;-2.97;66.13;141553.81;106690;1262;25345;-72
2024/03/03 11:29:47;;;;;;;16.70;6.90;;;;;;;-3.05;66.49;141535.97;106776;1264;25373;-68
2024/03/03 11:32:35;;;;;;;15.10;6.80;;;;;;;-3.03;66.56;141540.19;106706;1272;22543;-71
2024/03/03 11:35:21;;;;;;;10.50;5.70;;;;;;;-3.17;66.86;141505.47;106779;1268;25358;-70
2024/03/03 11:38:07;;;;;;;15.50;6.80;;;;;;;-3.42;67.97;141445.27;106763;1262;25466;-68
2024/03/03 11:40:53;;;;;;;15.80;7.60;;;;;;;-3.51;68.79;141424.42;106779;1260;22596;-72
2024/03/03 11:43:42;;;;;;;12.90;5.90;;;;;;;-3.43;69.26;141442.03;106725;1268;25491;-72
2024/03/03 11:46:50;;;;;;;12.40;6.20;;;;;;;-3.43;69.48;141442.78;106654;1262;25367;-72
2024/03/03 11:49:43;;;;;;;19.90;6.00;;;;;;;-3.49;69.90;141427.66;106717;1262;25431;-71
2024/03/03 11:52:42;;;;;;;20.50;7.00;;;;;;;-3.60;70.05;141401.16;106629;1262;25397;-67
2024/03/03 11:55:50;;;;;;;18.10;6.90;;;;;;;-3.68;69.75;141383.05;106760;1262;25487;-69
2024/03/03 11:58:37;;;;;;;19.50;6.40;;;;;;;-3.56;69.19;141410.80;106734;1260;25327;-68
2024/03/03 12:01:23;;;;;;;14.00;6.10;;;;;;;-3.59;68.83;141404.34;106784;1259;25427;-71
2024/03/03 12:04:09;;;;;;;13.40;6.40;;;;;;;-3.64;69.17;141390.72;106732;1258;25536;-68
2024/03/03 12:06:55;;;;;;;15.00;6.30;;;;;;;-3.69;69.26;141379.33;106718;1276;25370;-70
2024/03/03 12:09:42;;;;;;;13.60;6.70;;;;;;;-3.84;69.89;141344.42;106741;1261;25379;-72
2024/03/03 12:12:28;;;;;;;15.80;6.90;;;;;;;-3.81;70.54;141350.09;106756;1261;25413;-70
2024/03/03 12:15:19;;;;;;;22.70;8.60;;;;;;;-3.86;71.42;141339.22;106798;1262;25376;-65
2024/03/03 12:18:11;;;;;;;17.00;9.50;;;;;;;-4.01;72.87;141302.31;106778;1260;24372;-71
2024/03/03 12:20:58;;;;;;;16.30;8.20;;;;;;;-4.06;73.92;141291.66;106777;1262;25367;-71
2024/03/03 12:23:43;;;;;;;26.40;7.80;;;;;;;-4.11;74.81;141278.03;106709;1262;25345;-68
2024/03/03 12:26:29;;;;;;;19.10;8.30;;;;;;;-4.13;75.37;141273.33;106672;1262;25413;-69
2024/03/03 12:29:16;;;;;;;19.10;7.80;;;;;;;-4.18;75.75;141263.16;106768;1260;25390;-69
2024/03/03 12:32:04;;;;;;;19.90;7.40;;;;;;;-4.09;75.80;141282.98;106759;1280;25450;-70
2024/03/03 12:34:50;;;;;;;15.70;7.40;;;;;;;-4.03;75.35;141297.34;106665;1262;25450;-71